createdAt,value
2019-02-18T00:00:10.432Z,3.4
2019-02-18T00:05:05.398Z,3.3
2019-02-18T00:10:07.982Z,3.1
2019-02-18T00:15:02.942Z,3.1
2019-02-18T00:20:08.082Z,2.9
2019-02-18T00:25:20.796Z,2.9
2019-02-18T00:30:17.921Z,2.7
2019-02-18T00:35:05.304Z,2.7
2019-02-18T00:40:10.349Z,2.7
2019-02-18T00:45:05.351Z,2.8
2019-02-18T00:50:20.030Z,2.8
2019-02-18T00:55:05.820Z,2.8
2019-02-18T01:00:18.014Z,2.7
2019-02-18T01:05:05.330Z,2.7
2019-02-18T01:10:15.401Z,2.6
2019-02-18T01:15:05.328Z,2.6
2019-02-18T01:20:07.524Z,2.5
2019-02-18T01:25:05.024Z,2.5
2019-02-18T01:30:05.624Z,2.5
2019-02-18T01:35:23.415Z,2.6
2019-02-18T01:40:02.869Z,2.6
2019-02-18T01:45:02.885Z,2.6
2019-02-18T01:50:25.624Z,2.7
2019-02-18T01:55:05.183Z,2.7
2019-02-18T02:00:18.402Z,2.7
2019-02-18T02:05:10.798Z,2.7
2019-02-18T02:10:03.217Z,2.7
2019-02-18T02:15:08.324Z,2.7
2019-02-18T02:20:07.539Z,2.7
2019-02-18T02:25:15.075Z,2.6
2019-02-18T02:30:10.655Z,2.5
2019-02-18T02:35:15.882Z,2.5
2019-02-18T02:40:02.402Z,2.5
2019-02-18T02:45:37.803Z,2.5
2019-02-18T02:50:07.985Z,2.5
2019-02-18T02:55:18.114Z,2.5
2019-02-18T03:00:18.327Z,2.4
2019-02-18T03:05:10.701Z,2.3
2019-02-18T03:10:13.221Z,2.2
2019-02-18T03:15:05.653Z,2.2
2019-02-18T03:20:02.828Z,2.2
2019-02-18T03:30:03.005Z,2.1
2019-02-18T03:35:20.574Z,1.8
2019-02-18T03:40:35.968Z,1.6
2019-02-18T03:45:28.255Z,1.5
2019-02-18T03:50:08.331Z,1.4
2019-02-18T03:55:02.362Z,1.4
2019-02-18T04:00:09.982Z,1.2
2019-02-18T04:05:22.671Z,1.2
2019-02-18T04:10:10.850Z,1.1
2019-02-18T04:15:04.974Z,1.1
2019-02-18T04:20:08.201Z,1
2019-02-18T04:25:13.261Z,0.9
2019-02-18T04:30:05.788Z,0.9
2019-02-18T04:35:22.584Z,0.8
2019-02-18T04:40:05.599Z,0.8
2019-02-18T04:45:15.952Z,0.8
2019-02-18T04:50:05.599Z,0.8
2019-02-18T04:55:28.360Z,0.8
2019-02-18T05:00:04.897Z,0.8
2019-02-18T05:05:02.404Z,0.7
2019-02-18T05:10:05.528Z,0.6
2019-02-18T05:15:33.417Z,0.5
2019-02-18T05:20:35.431Z,0.5
2019-02-18T05:25:10.043Z,0.5
2019-02-18T05:30:05.363Z,0.5
2019-02-18T05:35:02.954Z,0.5
2019-02-18T05:40:04.978Z,0.6
2019-02-18T05:45:02.426Z,0.6
2019-02-18T05:50:27.721Z,0.6
2019-02-18T05:55:07.755Z,0.5
2019-02-18T06:00:02.787Z,0.5
2019-02-18T06:05:02.809Z,0.5
2019-02-18T06:10:03.309Z,0.5
2019-02-18T06:15:15.032Z,0.5
2019-02-18T06:20:38.707Z,0.5
2019-02-18T06:25:02.740Z,0.5
2019-02-18T06:30:05.066Z,0.5
2019-02-18T06:35:05.101Z,0.5
2019-02-18T06:40:02.571Z,0.5
2019-02-18T06:45:02.600Z,0.6
2019-02-18T06:50:15.249Z,0.6
2019-02-18T06:55:02.689Z,0.6
2019-02-18T07:00:07.812Z,0.6
2019-02-18T07:05:02.729Z,0.6
2019-02-18T07:10:05.830Z,0.7
2019-02-18T07:15:08.376Z,0.8
2019-02-18T07:20:17.720Z,1
2019-02-18T07:25:02.439Z,1
2019-02-18T07:30:17.696Z,1.1
2019-02-18T07:40:10.549Z,1.4
2019-02-18T07:45:02.961Z,1.4
2019-02-18T07:50:20.187Z,1.6
2019-02-18T07:55:02.950Z,1.6
2019-02-18T08:00:08.325Z,1.9
2019-02-18T08:05:02.637Z,1.9
2019-02-18T08:10:11.647Z,2.1
2019-02-18T08:15:03.199Z,2.3
2019-02-18T08:20:15.992Z,2.7
2019-02-18T08:25:22.607Z,2.9
2019-02-18T08:30:05.189Z,3.1
2019-02-18T08:35:05.271Z,3.3
2019-02-18T08:40:05.320Z,3.5
2019-02-18T08:45:15.294Z,3.8
2019-02-18T08:50:30.179Z,3.9
2019-02-18T08:55:03.242Z,4
2019-02-18T09:00:08.356Z,4.3
2019-02-18T09:05:08.285Z,4.5
2019-02-18T09:10:38.280Z,4.8
2019-02-18T09:15:03.261Z,4.8
2019-02-18T09:20:07.477Z,5.2
2019-02-18T09:25:25.175Z,5.5
2019-02-18T09:30:05.747Z,5.7
2019-02-18T09:35:22.596Z,5.9
2019-02-18T09:40:02.658Z,5.9
2019-02-18T09:45:17.859Z,6.3
2019-02-18T09:50:05.401Z,6.5
2019-02-18T09:55:02.846Z,6.5
2019-02-18T10:00:02.868Z,6.7
2019-02-18T10:05:05.458Z,7
2019-02-18T10:10:08.204Z,7.3
2019-02-18T10:15:20.972Z,7.4
2019-02-18T10:20:05.657Z,7.6
2019-02-18T10:25:03.225Z,7.6
2019-02-18T10:30:08.315Z,8.1
2019-02-18T10:40:13.382Z,8.5
2019-02-18T10:45:04.915Z,8.7
2019-02-18T10:50:15.618Z,8.9
2019-02-18T10:55:13.220Z,9.2
2019-02-18T11:00:02.954Z,9.2
2019-02-18T11:05:02.711Z,9.4
2019-02-18T11:10:05.743Z,9.8
2019-02-18T11:15:12.528Z,10
2019-02-18T11:20:02.677Z,10
2019-02-18T11:25:07.476Z,10.3
2019-02-18T11:30:07.628Z,10.5
2019-02-18T11:40:15.873Z,11
2019-02-18T11:45:02.317Z,10.9
2019-02-18T11:50:07.466Z,11.1
2019-02-18T11:55:22.694Z,11.3
2019-02-18T12:00:05.362Z,11.5
2019-02-18T12:05:02.956Z,11.5
2019-02-18T12:10:02.567Z,11.6
2019-02-18T12:15:07.749Z,12
2019-02-18T12:20:07.574Z,12.1
2019-02-18T12:25:02.592Z,12.1
2019-02-18T12:30:04.995Z,12.5
2019-02-18T12:35:07.762Z,12.8
2019-02-18T12:40:17.583Z,13.2
2019-02-18T12:45:12.685Z,13.7
2019-02-18T12:50:15.755Z,14
2019-02-18T12:55:28.573Z,14.3
2019-02-18T13:00:05.516Z,14.6
2019-02-18T13:05:05.482Z,14.7
2019-02-18T13:10:08.267Z,14.8
2019-02-18T13:15:07.471Z,15.3
2019-02-18T13:20:02.934Z,15.3
2019-02-18T13:25:08.251Z,18
2019-02-18T13:30:07.499Z,19
2019-02-18T13:35:32.982Z,19.5
2019-02-18T13:40:10.163Z,19.9
2019-02-18T13:45:20.195Z,20.3
2019-02-18T13:50:13.057Z,20.4
2019-02-18T13:55:25.864Z,20.2
2019-02-18T14:00:05.779Z,19.1
2019-02-18T14:05:05.170Z,19
2019-02-18T14:10:02.848Z,19
2019-02-18T14:15:03.055Z,19.2
2019-02-18T14:20:07.420Z,19.2
2019-02-18T14:25:05.110Z,19.6
2019-02-18T14:30:05.674Z,20
2019-02-18T14:35:07.466Z,20.1
2019-02-18T14:40:03.188Z,20.1
2019-02-18T14:45:02.914Z,19.9
2019-02-18T14:50:08.187Z,19
2019-02-18T14:55:03.132Z,19
2019-02-18T15:00:15.487Z,18.5
2019-02-18T15:05:08.171Z,18.3
2019-02-18T15:10:05.404Z,18.2
2019-02-18T15:15:10.665Z,18
2019-02-18T15:20:02.946Z,17.9
2019-02-18T15:25:08.178Z,17.4
2019-02-18T15:30:02.661Z,17.4
2019-02-18T15:35:10.497Z,16.6
2019-02-18T15:40:02.430Z,16.6
2019-02-18T15:45:05.765Z,15.9
2019-02-18T15:50:05.470Z,16
2019-02-18T15:55:30.500Z,16.2
2019-02-18T16:00:02.679Z,16.2
2019-02-18T16:05:05.162Z,15.5
2019-02-18T16:10:02.770Z,15.4
2019-02-18T16:15:03.041Z,14.8
2019-02-18T16:20:03.304Z,14.2
2019-02-18T16:25:07.926Z,13.3
2019-02-18T16:30:10.666Z,13
2019-02-18T16:35:08.368Z,12.8
2019-02-18T16:40:07.736Z,12.5
2019-02-18T16:45:02.910Z,12.5
2019-02-18T16:50:07.808Z,12.1
2019-02-18T16:55:07.878Z,11.9
2019-02-18T17:00:13.152Z,11.7
2019-02-18T17:05:10.274Z,11.5
2019-02-18T17:10:07.915Z,11.2
2019-02-18T17:20:05.617Z,10.9
2019-02-18T17:25:15.912Z,10.7
2019-02-18T17:35:05.378Z,10.4
2019-02-18T17:40:03.019Z,10.4
2019-02-18T17:45:05.579Z,10.1
2019-02-18T17:50:37.824Z,10.1
2019-02-18T17:55:22.581Z,9.9
2019-02-18T18:00:13.441Z,9.8
2019-02-18T18:05:07.477Z,9.7
2019-02-18T18:10:10.700Z,9.5
2019-02-18T18:15:20.934Z,9.3
2019-02-18T18:20:13.257Z,9.2
2019-02-18T18:25:03.281Z,9.2
2019-02-18T18:30:05.558Z,9
2019-02-18T18:35:07.465Z,8.9
2019-02-18T18:40:03.009Z,8.9
2019-02-18T18:45:30.460Z,8.6
2019-02-18T18:50:05.069Z,8.5
2019-02-18T18:55:03.060Z,8.5
2019-02-18T19:00:02.577Z,8.3
2019-02-18T19:05:02.742Z,8.1
2019-02-18T19:10:02.785Z,7.9
2019-02-18T19:15:02.359Z,7.7
2019-02-18T19:20:02.472Z,7.5
2019-02-18T19:25:10.580Z,7.1
2019-02-18T19:30:10.166Z,7.1
2019-02-18T19:35:17.546Z,7
2019-02-18T19:40:02.895Z,7
2019-02-18T19:45:17.721Z,6.8
2019-02-18T19:50:02.442Z,6.8
2019-02-18T19:55:10.600Z,6.7
2019-02-18T20:00:07.705Z,6.7
2019-02-18T20:05:05.266Z,6.7
2019-02-18T20:10:02.789Z,6.6
2019-02-18T20:15:07.940Z,6.4
2019-02-18T20:20:03.084Z,6.4
2019-02-18T20:25:15.829Z,6.3
2019-02-18T20:30:05.096Z,6.3
2019-02-18T20:35:05.159Z,6.1
2019-02-18T20:40:05.189Z,6.1
2019-02-18T20:45:02.810Z,6.1
2019-02-18T20:50:05.409Z,6
2019-02-18T20:55:03.121Z,5.9
2019-02-18T21:00:07.529Z,5.8
2019-02-18T21:05:03.089Z,5.8
2019-02-18T21:10:17.814Z,5.8
2019-02-18T21:15:02.991Z,5.8
2019-02-18T21:20:05.823Z,5.7
2019-02-18T21:25:18.101Z,5.6
2019-02-18T21:30:15.343Z,5.6
2019-02-18T21:35:07.799Z,5.6
2019-02-18T21:40:04.908Z,5.6
2019-02-18T21:45:15.908Z,5.6
2019-02-18T21:50:05.536Z,5.6
2019-02-18T21:55:07.436Z,5.5
2019-02-18T22:00:17.801Z,5.4
2019-02-18T22:05:05.222Z,5.4
2019-02-18T22:10:04.997Z,5.4
2019-02-18T22:15:08.327Z,5.3
2019-02-18T22:20:05.026Z,5.2
2019-02-18T22:25:15.294Z,5.1
2019-02-18T22:30:04.980Z,5.1
2019-02-18T22:35:15.214Z,5
2019-02-18T22:40:10.352Z,5
2019-02-18T22:45:05.038Z,5
2019-02-18T22:50:05.622Z,5
2019-02-18T22:55:03.194Z,3.4
2019-02-18T23:00:31.071Z,3.2
2019-02-18T23:05:03.190Z,4.8
2019-02-18T23:10:07.415Z,4.7
2019-02-18T23:15:08.037Z,4.6
2019-02-18T23:20:08.293Z,4.4
2019-02-18T23:25:20.656Z,4.3
2019-02-18T23:30:05.289Z,4.3
2019-02-18T23:35:05.287Z,4.4
2019-02-18T23:40:07.376Z,4.4
2019-02-18T23:45:02.361Z,4.4
2019-02-18T23:50:12.496Z,4.5
2019-02-18T23:55:07.377Z,4.4
